Time;durP1;ratioP1;P1;durP2;ratioP2;P2;SDS_P1;SDS_P2;PMS_P1;PMS_P2;Temp;Humidity;BMP_temperature;BMP_pressure;BME280_temperature;BME280_humidity;BME280_pressure;Samples;Min_cycle;Max_cycle;Signal;HPM_P1;HPM_P2
2021/03/05 00:00:38;;;;;;;9.55;7.28;;;7.70;99.90;;;;;;5034989;28;20705;-41
2021/03/05 00:03:07;;;;;;;8.63;7.63;;;7.70;99.90;;;;;;5034158;28;20240;-40
2021/03/05 00:05:37;;;;;;;8.15;7.13;;;7.60;99.90;;;;;;5034577;28;20283;-40
2021/03/05 00:08:06;;;;;;;9.18;6.88;;;7.60;99.90;;;;;;5034590;28;20633;-40
2021/03/05 00:10:36;;;;;;;9.32;7.35;;;7.60;99.90;;;;;;5034433;28;20254;-40
2021/03/05 00:13:04;;;;;;;9.23;7.53;;;7.60;99.90;;;;;;5034307;28;20213;-41
2021/03/05 00:15:33;;;;;;;11.98;8.38;;;7.70;99.90;;;;;;5034536;28;20328;-41
2021/03/05 00:18:00;;;;;;;7.93;6.75;;;7.70;99.90;;;;;;5034533;28;20270;-41
2021/03/05 00:20:29;;;;;;;8.25;7.45;;;7.70;99.90;;;;;;5034233;28;20307;-41
2021/03/05 00:22:57;;;;;;;10.38;8.48;;;7.70;99.90;;;;;;5034233;28;20235;-40
2021/03/05 00:25:25;;;;;;;11.07;8.38;;;7.70;99.90;;;;;;5034155;28;20255;-41
2021/03/05 00:27:52;;;;;;;10.25;7.63;;;7.70;99.90;;;;;;5034275;28;20251;-40
2021/03/05 00:30:20;;;;;;;8.32;6.95;;;7.70;99.90;;;;;;5034440;28;20247;-40
2021/03/05 00:32:48;;;;;;;8.52;7.32;;;7.60;99.90;;;;;;5034362;28;20212;-41
2021/03/05 00:35:17;;;;;;;8.98;7.53;;;7.60;99.90;;;;;;5034242;28;20263;-41
2021/03/05 00:37:49;;;;;;;8.20;7.40;;;7.60;99.90;;;;;;5034273;28;20259;-40
2021/03/05 00:40:18;;;;;;;8.75;7.07;;;7.60;99.90;;;;;;5034248;28;20220;-41
2021/03/05 00:42:47;;;;;;;8.40;7.18;;;7.60;99.90;;;;;;5034264;28;20220;-41
2021/03/05 00:45:15;;;;;;;10.35;7.88;;;7.60;99.90;;;;;;5034188;28;20235;-40
2021/03/05 00:47:42;;;;;;;9.38;8.10;;;7.60;99.90;;;;;;5033932;28;20248;-41
2021/03/05 00:50:11;;;;;;;7.88;7.18;;;7.70;99.90;;;;;;5034025;28;20209;-40
2021/03/05 00:52:38;;;;;;;8.63;7.47;;;7.60;99.90;;;;;;5033958;28;20240;-40
2021/03/05 00:55:07;;;;;;;7.88;7.13;;;7.60;99.90;;;;;;5033745;28;20254;-40
2021/03/05 00:57:35;;;;;;;8.63;7.30;;;7.60;99.90;;;;;;5034037;28;20220;-40
2021/03/05 01:00:05;;;;;;;10.25;7.22;;;7.60;99.90;;;;;;5033770;28;20255;-41
2021/03/05 01:02:32;;;;;;;7.15;6.40;;;7.60;99.90;;;;;;5033526;28;20322;-40
2021/03/05 01:04:59;;;;;;;10.82;7.38;;;7.50;99.90;;;;;;5032785;28;20209;-39
2021/03/05 01:07:26;;;;;;;8.02;7.22;;;7.60;99.90;;;;;;5033935;28;20210;-41
2021/03/05 01:09:53;;;;;;;8.18;7.25;;;7.60;99.90;;;;;;5033822;28;20299;-41
2021/03/05 01:12:21;;;;;;;8.82;7.88;;;7.50;99.90;;;;;;5033647;28;20583;-41
2021/03/05 01:14:48;;;;;;;9.38;8.48;;;7.50;99.90;;;;;;5033815;28;20205;-40
2021/03/05 01:17:16;;;;;;;7.97;7.28;;;7.50;99.90;;;;;;5033355;28;20267;-41
2021/03/05 01:19:43;;;;;;;8.88;7.07;;;7.50;99.90;;;;;;5033376;28;20729;-41
2021/03/05 01:22:10;;;;;;;7.25;6.32;;;7.50;99.90;;;;;;5033587;28;20258;-41
2021/03/05 01:24:37;;;;;;;8.63;6.25;;;7.50;99.90;;;;;;5033354;28;20231;-41
2021/03/05 01:27:05;;;;;;;7.20;5.88;;;7.50;99.90;;;;;;5033532;28;20251;-40
2021/03/05 01:29:32;;;;;;;6.13;5.53;;;7.40;99.90;;;;;;5033360;28;20245;-42
2021/03/05 01:31:59;;;;;;;6.75;5.60;;;7.40;99.90;;;;;;5033254;28;20736;-43
2021/03/05 01:34:27;;;;;;;6.97;6.28;;;7.40;99.90;;;;;;5033405;28;20220;-42
2021/03/05 01:36:55;;;;;;;6.50;5.80;;;7.40;99.90;;;;;;5033096;28;20228;-42
2021/03/05 01:39:22;;;;;;;7.75;6.40;;;7.40;99.90;;;;;;5033225;28;20235;-42
2021/03/05 01:41:50;;;;;;;6.78;5.93;;;7.40;99.90;;;;;;5033092;28;20205;-42
2021/03/05 01:44:17;;;;;;;6.03;5.53;;;7.40;99.90;;;;;;5033091;28;20585;-40
2021/03/05 01:46:44;;;;;;;6.15;5.55;;;7.40;99.90;;;;;;5033053;28;20266;-40
2021/03/05 01:49:12;;;;;;;5.88;5.28;;;7.40;99.90;;;;;;5032984;28;20266;-39
2021/03/05 01:51:39;;;;;;;6.25;5.55;;;7.40;99.90;;;;;;5032926;28;20245;-40
2021/03/05 01:54:08;;;;;;;6.07;5.47;;;7.40;99.90;;;;;;5032838;28;20410;-40
2021/03/05 01:56:39;;;;;;;7.55;5.97;;;7.40;99.90;;;;;;5032789;28;20579;-40
2021/03/05 01:59:08;;;;;;;5.60;5.00;;;7.30;99.90;;;;;;5032700;28;20255;-39
2021/03/05 02:01:36;;;;;;;7.05;5.85;;;7.30;99.90;;;;;;5032723;28;20331;-39
2021/03/05 02:04:07;;;;;;;6.20;5.43;;;7.30;99.90;;;;;;5032730;28;20216;-39
2021/03/05 02:06:45;;;;;;;5.47;4.97;;;7.30;99.90;;;;;;5032803;28;20200;-40
2021/03/05 02:09:13;;;;;;;6.15;5.18;;;7.30;99.90;;;;;;5032620;28;20209;-40
2021/03/05 02:11:40;;;;;;;5.43;4.93;;;7.40;99.90;;;;;;5032542;28;20336;-40
2021/03/05 02:14:09;;;;;;;5.35;4.85;;;7.40;99.90;;;;;;5032706;28;20247;-40
2021/03/05 02:16:51;;;;;;;6.13;5.15;;;7.40;99.90;;;;;;5032315;28;20331;-40
2021/03/05 02:19:40;;;;;;;8.90;5.40;;;7.40;99.90;;;;;;5032471;28;20213;-41
2021/03/05 02:22:21;;;;;;;7.18;5.85;;;7.40;99.90;;;;;;5032364;28;20243;-41
2021/03/05 02:25:12;;;;;;;6.70;5.82;;;7.40;99.90;;;;;;5032544;28;20213;-40
2021/03/05 02:28:08;;;;;;;6.57;5.97;;;7.40;99.90;;;;;;5032291;28;20244;-40
2021/03/05 02:31:12;;;;;;;7.25;6.20;;;7.40;99.90;;;;;;5032608;28;20209;-41
2021/03/05 02:33:45;;;;;;;7.78;6.90;;;7.40;99.90;;;;;;5032362;28;20204;-40
2021/03/05 02:36:18;;;;;;;6.85;6.15;;;7.40;99.90;;;;;;5032158;28;20235;-42
2021/03/05 02:38:53;;;;;;;7.80;7.00;;;7.50;99.90;;;;;;5032215;28;20295;-44
2021/03/05 02:41:22;;;;;;;9.38;7.15;;;7.50;99.90;;;;;;5032299;28;20303;-41
2021/03/05 02:43:49;;;;;;;7.47;6.70;;;7.50;99.90;;;;;;5032039;28;20209;-41
2021/03/05 02:46:18;;;;;;;9.98;8.57;;;7.50;99.90;;;;;;5031929;28;20209;-41
2021/03/05 02:48:48;;;;;;;9.25;8.15;;;7.50;99.90;;;;;;5032031;28;20216;-39
2021/03/05 02:51:17;;;;;;;9.20;8.27;;;7.50;99.90;;;;;;5031896;28;20676;-39
2021/03/05 02:53:46;;;;;;;11.30;8.48;;;7.50;99.90;;;;;;5032145;28;20212;-40
2021/03/05 02:56:17;;;;;;;9.10;8.18;;;7.50;99.90;;;;;;5031939;28;20590;-39
2021/03/05 02:58:47;;;;;;;10.18;9.18;;;7.50;99.90;;;;;;5032053;28;20209;-39
2021/03/05 03:01:17;;;;;;;10.02;8.57;;;7.50;99.90;;;;;;5031824;28;20213;-40
2021/03/05 03:03:44;;;;;;;11.82;9.73;;;7.50;99.90;;;;;;5031885;28;20233;-40
2021/03/05 03:06:14;;;;;;;12.25;9.68;;;7.50;99.90;;;;;;5032128;28;20263;-40
2021/03/05 03:08:43;;;;;;;12.43;10.13;;;7.50;99.90;;;;;;5031926;28;20312;-40
2021/03/05 03:11:11;;;;;;;10.25;9.07;;;7.50;99.90;;;;;;5031686;28;20251;-40
2021/03/05 03:13:38;;;;;;;11.35;9.02;;;7.40;99.90;;;;;;5031654;28;20648;-40
2021/03/05 03:16:07;;;;;;;9.27;7.97;;;7.50;99.90;;;;;;5031734;28;20224;-40
2021/03/05 03:18:37;;;;;;;10.65;8.88;;;7.40;99.90;;;;;;5031643;28;20299;-41
2021/03/05 03:21:05;;;;;;;9.55;8.18;;;7.40;99.90;;;;;;5031942;28;20308;-40
2021/03/05 03:23:33;;;;;;;8.45;7.63;;;7.40;99.90;;;;;;5031873;28;20641;-41
2021/03/05 03:26:01;;;;;;;8.27;7.47;;;7.40;99.90;;;;;;5031690;28;20288;-40
2021/03/05 03:28:28;;;;;;;8.65;7.75;;;7.30;99.90;;;;;;5033110;28;20295;-41
2021/03/05 03:30:56;;;;;;;7.50;6.72;;;7.30;99.90;;;;;;5035498;28;20325;-42
2021/03/05 03:33:23;;;;;;;7.97;7.18;;;7.30;99.90;;;;;;5035755;28;20300;-41
2021/03/05 03:35:52;;;;;;;8.43;7.45;;;7.20;99.90;;;;;;5035465;28;20267;-42
2021/03/05 03:38:20;;;;;;;8.77;7.90;;;7.20;99.90;;;;;;5035518;28;20204;-42
2021/03/05 03:40:48;;;;;;;9.80;8.18;;;7.10;99.90;;;;;;5035513;28;20267;-41
2021/03/05 03:43:14;;;;;;;8.50;7.63;;;7.10;99.90;;;;;;5035283;28;20299;-41
2021/03/05 03:45:42;;;;;;;10.60;8.38;;;7.10;99.90;;;;;;5035461;28;20300;-39
2021/03/05 03:48:11;;;;;;;11.95;8.80;;;7.10;99.90;;;;;;5035316;28;20599;-40
2021/03/05 03:50:43;;;;;;;10.73;9.63;;;7.00;99.90;;;;;;5035347;28;20266;-40
2021/03/05 03:53:14;;;;;;;11.55;10.15;;;7.00;99.90;;;;;;5036812;28;20622;-42
2021/03/05 03:55:45;;;;;;;12.55;11.07;;;7.00;99.90;;;;;;5036485;28;20578;-40
2021/03/05 03:58:16;;;;;;;13.55;11.63;;;6.90;99.90;;;;;;5035324;28;20215;-40
2021/03/05 04:00:45;;;;;;;15.90;12.82;;;6.90;99.90;;;;;;5035462;28;20582;-40
2021/03/05 04:03:14;;;;;;;21.25;15.32;;;6.80;99.90;;;;;;5034866;28;20271;-40
2021/03/05 04:05:44;;;;;;;14.48;12.70;;;6.80;99.90;;;;;;5035127;28;20296;-40
2021/03/05 04:08:33;;;;;;;16.40;12.88;;;6.80;99.90;;;;;;5035041;28;20224;-42
2021/03/05 04:11:01;;;;;;;18.52;14.38;;;6.80;99.90;;;;;;5034996;28;20208;-40
2021/03/05 04:13:29;;;;;;;16.15;13.82;;;6.80;99.90;;;;;;5034890;28;20300;-41
2021/03/05 04:15:56;;;;;;;18.73;14.50;;;6.80;99.90;;;;;;5034635;28;20323;-40
2021/03/05 04:18:30;;;;;;;17.10;15.00;;;6.80;99.90;;;;;;5034619;28;20209;-41
2021/03/05 04:21:01;;;;;;;18.00;14.25;;;6.70;99.90;;;;;;5034483;28;20284;-41
2021/03/05 04:23:28;;;;;;;16.35;13.50;;;6.80;99.90;;;;;;5034507;28;20212;-43
2021/03/05 04:25:56;;;;;;;17.42;14.07;;;6.70;99.90;;;;;;5034665;28;20208;-42
2021/03/05 04:28:23;;;;;;;19.48;13.55;;;6.70;99.90;;;;;;5034599;28;20237;-41
2021/03/05 04:30:51;;;;;;;16.25;13.38;;;6.70;99.90;;;;;;5034440;28;20657;-40
2021/03/05 04:33:19;;;;;;;16.98;14.02;;;6.70;99.90;;;;;;5034308;28;20221;-41
2021/03/05 04:35:46;;;;;;;18.55;14.00;;;6.70;99.90;;;;;;5034497;28;20270;-41
2021/03/05 04:38:14;;;;;;;20.70;15.65;;;6.70;99.90;;;;;;5034382;28;20215;-43
2021/03/05 04:40:41;;;;;;;17.15;14.00;;;6.70;99.90;;;;;;5034321;28;20215;-43
2021/03/05 04:43:09;;;;;;;21.05;14.15;;;6.60;99.90;;;;;;5034202;28;20550;-40
2021/03/05 04:45:39;;;;;;;18.58;15.57;;;6.60;99.90;;;;;;5034075;28;20680;-41
2021/03/05 04:48:07;;;;;;;21.13;16.15;;;6.60;99.90;;;;;;5034064;28;20239;-41
2021/03/05 04:50:35;;;;;;;19.13;15.20;;;6.60;99.90;;;;;;5034345;28;20292;-41
2021/03/05 04:53:02;;;;;;;20.30;15.88;;;6.60;99.90;;;;;;5034313;28;20200;-41
2021/03/05 04:55:29;;;;;;;18.63;14.88;;;6.60;99.90;;;;;;5033944;28;20659;-42
2021/03/05 04:57:56;;;;;;;21.27;16.13;;;6.60;99.90;;;;;;5033886;28;20272;-41
2021/03/05 05:00:24;;;;;;;19.95;15.88;;;6.50;99.90;;;;;;5033779;28;20248;-41
2021/03/05 05:02:52;;;;;;;22.23;16.60;;;6.50;99.90;;;;;;5033520;28;20240;-41
2021/03/05 05:05:19;;;;;;;21.45;16.80;;;6.50;99.90;;;;;;5033662;28;20690;-41
2021/03/05 05:07:46;;;;;;;20.08;15.73;;;6.50;99.90;;;;;;5033737;28;20635;-42
2021/03/05 05:10:13;;;;;;;18.95;14.93;;;6.50;99.90;;;;;;5033812;28;20259;-43
2021/03/05 05:12:41;;;;;;;19.83;15.50;;;6.40;99.90;;;;;;5033477;28;20216;-40
2021/03/05 05:15:09;;;;;;;15.20;11.80;;;6.40;99.90;;;;;;5033460;28;20295;-41
2021/03/05 05:17:37;;;;;;;12.88;10.55;;;6.40;99.90;;;;;;5033679;28;20233;-42
2021/03/05 05:20:05;;;;;;;9.98;7.70;;;6.40;99.90;;;;;;5033660;28;20208;-41
2021/03/05 05:22:34;;;;;;;10.65;7.60;;;6.40;99.90;;;;;;5033610;28;20243;-41
2021/03/05 05:25:04;;;;;;;9.75;7.28;;;6.30;99.90;;;;;;5033233;28;20303;-40
2021/03/05 05:27:31;;;;;;;7.35;6.65;;;6.30;99.90;;;;;;5033121;28;20294;-41
2021/03/05 05:29:58;;;;;;;8.23;7.15;;;6.20;99.90;;;;;;5033332;28;20258;-41
2021/03/05 05:32:25;;;;;;;9.25;7.30;;;6.20;99.90;;;;;;5033507;28;20641;-41
2021/03/05 05:34:54;;;;;;;10.40;7.53;;;6.10;99.90;;;;;;5033463;28;20208;-41
2021/03/05 05:37:21;;;;;;;8.60;7.70;;;6.10;99.90;;;;;;5033135;28;20220;-41
2021/03/05 05:39:48;;;;;;;12.57;9.05;;;6.10;99.90;;;;;;5033280;28;20237;-42
2021/03/05 05:42:16;;;;;;;11.85;9.73;;;6.10;99.90;;;;;;5033576;28;20544;-41
2021/03/05 05:44:44;;;;;;;10.98;9.80;;;6.00;99.90;;;;;;5033776;28;20216;-40
2021/03/05 05:47:15;;;;;;;11.27;10.07;;;6.00;99.90;;;;;;5033098;28;20208;-40
2021/03/05 05:49:43;;;;;;;13.52;10.45;;;6.00;99.90;;;;;;5033590;28;20217;-40
2021/03/05 05:52:18;;;;;;;14.63;13.00;;;6.10;99.90;;;;;;5032897;28;20295;-40
2021/03/05 05:54:47;;;;;;;13.95;11.82;;;6.10;99.90;;;;;;5033068;28;20610;-39
2021/03/05 05:57:16;;;;;;;14.05;12.38;;;6.20;99.90;;;;;;5033252;28;20639;-40
2021/03/05 05:59:43;;;;;;;13.30;11.63;;;6.10;99.90;;;;;;5033328;28;20300;-40
2021/03/05 06:02:12;;;;;;;13.43;12.02;;;6.00;99.90;;;;;;5033131;28;20268;-40
2021/03/05 06:04:39;;;;;;;14.60;12.75;;;5.90;99.90;;;;;;5033184;28;20236;-40
2021/03/05 06:07:07;;;;;;;15.45;13.38;;;5.80;99.90;;;;;;5032589;28;20315;-40
2021/03/05 06:09:35;;;;;;;16.95;13.00;;;5.80;99.90;;;;;;5032823;28;20243;-40
2021/03/05 06:12:12;;;;;;;14.32;11.40;;;5.70;99.90;;;;;;5032699;28;20296;-40
2021/03/05 06:14:40;;;;;;;12.07;10.65;;;5.70;99.90;;;;;;5032589;28;20263;-40
2021/03/05 06:17:08;;;;;;;14.50;10.65;;;5.60;99.90;;;;;;5032424;28;20319;-40
2021/03/05 06:19:37;;;;;;;11.73;10.45;;;5.50;99.90;;;;;;5032247;28;20204;-44
2021/03/05 06:22:18;;;;;;;11.20;8.88;;;5.50;99.90;;;;;;5032454;28;20299;-42
2021/03/05 06:24:46;;;;;;;8.63;7.72;;;5.40;99.90;;;;;;5032496;28;20298;-44
2021/03/05 06:27:14;;;;;;;18.08;13.52;;;5.30;99.90;;;;;;5032153;28;20659;-48
2021/03/05 06:29:42;;;;;;;18.65;14.25;;;5.20;99.90;;;;;;5032277;28;20299;-42
2021/03/05 06:32:11;;;;;;;9.90;8.43;;;5.10;99.90;;;;;;5032257;28;20224;-43
2021/03/05 06:34:49;;;;;;;10.52;8.55;;;5.10;99.90;;;;;;5032063;28;20208;-41
2021/03/05 06:37:17;;;;;;;21.20;18.92;;;5.00;99.90;;;;;;5031752;28;20671;-43
2021/03/05 06:39:55;;;;;;;25.60;21.75;;;5.00;99.90;;;;;;5031751;28;20204;-41
2021/03/05 06:42:22;;;;;;;12.13;10.05;;;4.90;99.90;;;;;;5031821;28;20532;-41
2021/03/05 06:44:49;;;;;;;10.10;9.05;;;4.90;99.90;;;;;;5031902;28;20304;-43
2021/03/05 06:47:17;;;;;;;13.30;11.10;;;4.90;99.90;;;;;;5031933;28;20204;-41
2021/03/05 06:49:46;;;;;;;15.23;12.38;;;4.90;99.90;;;;;;5031743;28;20269;-42
2021/03/05 06:52:15;;;;;;;12.95;10.20;;;4.80;99.90;;;;;;5032143;28;20266;-41
2021/03/05 06:54:43;;;;;;;13.30;10.55;;;4.80;99.90;;;;;;5031895;28;20261;-41
2021/03/05 06:57:12;;;;;;;12.23;10.15;;;4.80;99.90;;;;;;5031723;28;20255;-42
2021/03/05 06:59:40;;;;;;;12.77;10.10;;;4.80;99.90;;;;;;5031863;28;20299;-41
2021/03/05 07:02:08;;;;;;;12.05;9.88;;;4.80;99.90;;;;;;5031743;28;20807;-41
2021/03/05 07:04:44;;;;;;;13.35;11.48;;;4.80;99.90;;;;;;5035472;28;20212;-41
2021/03/05 07:07:12;;;;;;;11.27;8.77;;;4.80;99.90;;;;;;5036042;28;20235;-41
2021/03/05 07:09:42;;;;;;;13.52;10.52;;;4.70;99.90;;;;;;5035935;28;20258;-41
2021/03/05 07:12:11;;;;;;;12.13;9.70;;;4.60;99.90;;;;;;5036115;28;20208;-41
2021/03/05 07:14:40;;;;;;;11.23;9.85;;;4.70;99.90;;;;;;5035682;28;20244;-42
2021/03/05 07:17:07;;;;;;;12.48;11.20;;;4.70;99.90;;;;;;5035820;28;20351;-42
2021/03/05 07:19:36;;;;;;;12.75;11.45;;;4.70;99.90;;;;;;5035664;28;20208;-42
2021/03/05 07:22:04;;;;;;;11.05;9.85;;;4.70;99.90;;;;;;5035682;28;20212;-45
2021/03/05 07:24:33;;;;;;;12.45;11.15;;;4.70;99.90;;;;;;5035860;28;20204;-42
2021/03/05 07:27:03;;;;;;;15.88;12.75;;;4.70;99.90;;;;;;5035761;28;20611;-41
2021/03/05 07:29:33;;;;;;;13.48;11.73;;;4.80;99.90;;;;;;5035775;28;20212;-40
2021/03/05 07:32:05;;;;;;;14.63;12.77;;;4.70;99.90;;;;;;5035860;28;20208;-42
2021/03/05 07:34:37;;;;;;;13.23;11.57;;;4.60;99.90;;;;;;5035474;28;20584;-42
2021/03/05 07:37:06;;;;;;;14.02;11.50;;;4.60;99.90;;;;;;5035629;28;20260;-41
2021/03/05 07:39:38;;;;;;;13.00;11.18;;;4.60;99.90;;;;;;5035585;28;20208;-41
2021/03/05 07:42:09;;;;;;;14.75;13.02;;;4.60;99.90;;;;;;5035568;28;20637;-42
2021/03/05 07:44:38;;;;;;;12.45;11.00;;;4.50;99.90;;;;;;5035401;28;20291;-42
2021/03/05 07:47:09;;;;;;;13.65;10.90;;;4.60;99.90;;;;;;5035053;28;20204;-43
2021/03/05 07:49:37;;;;;;;10.48;9.38;;;4.60;99.90;;;;;;5035021;28;20209;-42
2021/03/05 07:52:06;;;;;;;9.55;8.55;;;4.50;99.90;;;;;;5034908;28;20249;-45
2021/03/05 07:54:49;;;;;;;8.40;7.53;;;4.50;99.90;;;;;;5035156;28;20356;-43
2021/03/05 07:57:45;;;;;;;8.43;6.80;;;4.40;99.90;;;;;;5034521;28;20220;-42
2021/03/05 08:00:33;;;;;;;8.13;6.80;;;4.40;99.90;;;;;;5034720;28;20209;-42
2021/03/05 08:03:01;;;;;;;7.75;6.90;;;4.40;99.90;;;;;;5027588;28;20403;-41
2021/03/05 08:05:38;;;;;;;7.40;6.68;;;4.40;99.90;;;;;;5034611;28;20236;-41
2021/03/05 08:08:12;;;;;;;7.53;6.63;;;4.50;99.90;;;;;;5034849;28;20671;-41
2021/03/05 08:10:45;;;;;;;8.63;7.15;;;4.50;99.90;;;;;;5034503;28;20295;-41
2021/03/05 08:13:51;;;;;;;6.93;6.25;;;4.40;99.90;;;;;;5034533;28;20208;-41
2021/03/05 08:16:40;;;;;;;6.55;5.60;;;4.50;99.90;;;;;;5034372;28;20284;-41
2021/03/05 08:19:47;;;;;;;5.88;4.82;;;4.50;99.90;;;;;;5034579;28;20219;-41
2021/03/05 08:22:16;;;;;;;44.08;19.90;;;4.50;99.90;;;;;;5034341;28;20604;-40
2021/03/05 08:24:43;;;;;;;32.70;15.48;;;4.50;99.90;;;;;;5034558;28;20223;-39
2021/03/05 08:27:13;;;;;;;172.73;66.88;;;4.50;99.90;;;;;;5034267;28;20295;-39
2021/03/05 08:30:07;;;;;;;30.85;16.00;;;4.50;99.90;;;;;;5034219;28;20216;-39
2021/03/05 08:33:01;;;;;;;12.77;8.45;;;4.50;99.90;;;;;;5034248;28;20213;-40
2021/03/05 08:35:47;;;;;;;92.07;35.53;;;4.60;99.90;;;;;;5034225;28;20302;-39
2021/03/05 08:38:21;;;;;;;48.75;19.52;;;4.60;99.90;;;;;;5034228;28;20228;-39
2021/03/05 08:40:50;;;;;;;18.35;11.88;;;4.60;99.90;;;;;;5034677;28;20655;-39
2021/03/05 08:43:20;;;;;;;4.43;3.88;;;4.60;99.90;;;;;;5033998;28;20224;-39
2021/03/05 08:45:50;;;;;;;4.35;3.92;;;4.60;99.90;;;;;;5033791;28;20676;-39
2021/03/05 08:48:33;;;;;;;4.07;3.58;;;4.60;99.90;;;;;;5033733;28;20249;-41
2021/03/05 08:51:02;;;;;;;4.28;3.88;;;4.60;99.90;;;;;;5033838;28;20339;-40
2021/03/05 08:53:29;;;;;;;5.00;4.38;;;4.60;99.90;;;;;;5033547;28;20236;-40
2021/03/05 08:55:56;;;;;;;4.18;3.78;;;4.60;99.90;;;;;;5033606;28;20220;-40
2021/03/05 08:58:23;;;;;;;4.50;4.10;;;4.70;99.90;;;;;;5033712;28;20602;-39
2021/03/05 09:00:51;;;;;;;5.43;4.55;;;4.60;99.90;;;;;;5033575;28;20681;-39
2021/03/05 09:03:19;;;;;;;5.85;5.25;;;4.60;99.90;;;;;;5033544;28;20264;-40
2021/03/05 09:05:49;;;;;;;6.18;4.85;;;4.70;99.90;;;;;;5033669;28;20278;-40
2021/03/05 09:08:18;;;;;;;4.82;4.38;;;4.70;99.90;;;;;;5033470;28;20291;-40
2021/03/05 09:10:47;;;;;;;6.25;5.28;;;4.70;99.90;;;;;;5033710;28;20295;-40
2021/03/05 09:13:16;;;;;;;5.50;4.45;;;4.80;99.90;;;;;;5033572;28;20209;-40
2021/03/05 09:15:45;;;;;;;5.25;4.60;;;4.80;99.90;;;;;;5033240;28;20240;-40
2021/03/05 09:18:14;;;;;;;6.82;5.35;;;4.80;99.90;;;;;;5033109;28;20233;-41
2021/03/05 09:20:45;;;;;;;6.32;4.88;;;4.80;99.90;;;;;;5033278;28;20382;-40
2021/03/05 09:23:19;;;;;;;5.20;4.32;;;4.80;99.90;;;;;;5032197;28;20208;-40
2021/03/05 09:25:54;;;;;;;5.93;4.78;;;4.70;99.90;;;;;;5032603;28;20244;-41
2021/03/05 09:28:23;;;;;;;5.30;4.78;;;4.60;99.90;;;;;;5033126;28;20291;-40
2021/03/05 09:30:53;;;;;;;5.45;4.60;;;4.70;99.90;;;;;;5033089;28;20590;-40
2021/03/05 09:33:29;;;;;;;5.50;4.88;;;4.70;99.90;;;;;;5033017;28;20552;-40
2021/03/05 09:36:01;;;;;;;7.50;5.28;;;4.70;99.90;;;;;;5033173;28;20699;-40
2021/03/05 09:38:29;;;;;;;5.38;4.68;;;4.70;99.90;;;;;;5032882;28;20236;-40
2021/03/05 09:41:10;;;;;;;7.03;5.00;;;4.70;99.90;;;;;;5032776;28;20702;-40
2021/03/05 09:43:37;;;;;;;5.80;4.75;;;4.70;99.90;;;;;;5032738;28;20255;-40
2021/03/05 09:46:23;;;;;;;7.50;5.18;;;4.70;99.90;;;;;;5033114;28;20635;-40
2021/03/05 09:48:52;;;;;;;6.25;5.20;;;4.80;99.90;;;;;;5032935;28;20566;-40
2021/03/05 09:51:20;;;;;;;6.63;5.13;;;4.90;99.90;;;;;;5032776;28;20566;-40
2021/03/05 09:53:53;;;;;;;7.72;5.63;;;5.00;99.90;;;;;;5032682;28;20712;-40
2021/03/05 09:56:23;;;;;;;6.05;5.18;;;5.00;99.90;;;;;;5032615;28;20694;-40
2021/03/05 09:59:00;;;;;;;7.68;5.60;;;5.00;99.90;;;;;;5032441;28;20280;-39
2021/03/05 10:01:33;;;;;;;6.30;4.90;;;5.10;99.90;;;;;;5031862;28;20254;-39
2021/03/05 10:04:02;;;;;;;6.47;4.63;;;5.20;99.90;;;;;;5032547;28;20270;-39
2021/03/05 10:06:31;;;;;;;7.95;5.70;;;5.30;99.90;;;;;;5032231;28;20216;-40
2021/03/05 10:09:00;;;;;;;6.95;5.13;;;5.40;99.90;;;;;;5032157;28;20308;-40
2021/03/05 10:11:34;;;;;;;5.15;4.18;;;5.40;99.90;;;;;;5032464;28;20256;-40
2021/03/05 10:14:04;;;;;;;4.95;4.55;;;5.30;99.90;;;;;;5031934;28;20295;-40
2021/03/05 10:16:34;;;;;;;5.20;4.50;;;5.40;99.90;;;;;;5032013;28;20205;-40
2021/03/05 10:19:05;;;;;;;5.00;4.50;;;5.40;99.90;;;;;;5032299;28;20283;-41
2021/03/05 10:21:34;;;;;;;6.53;5.60;;;5.40;99.90;;;;;;5032104;28;20216;-41
2021/03/05 10:24:07;;;;;;;4.72;4.32;;;5.60;99.90;;;;;;5032191;28;20204;-42
2021/03/05 10:26:35;;;;;;;5.13;4.63;;;5.70;99.90;;;;;;5031968;28;20694;-41
2021/03/05 10:29:04;;;;;;;6.68;5.30;;;5.90;99.90;;;;;;5031854;28;20302;-40
2021/03/05 10:31:50;;;;;;;6.18;4.82;;;6.00;99.90;;;;;;5031717;28;20286;-40
2021/03/05 10:34:26;;;;;;;7.43;4.90;;;6.20;99.90;;;;;;5031722;28;20208;-40
2021/03/05 10:36:56;;;;;;;9.45;4.60;;;6.40;99.90;;;;;;5031184;28;20322;-40
2021/03/05 10:39:24;;;;;;;5.20;4.70;;;6.60;99.90;;;;;;5031866;28;20258;-40
2021/03/05 10:41:53;;;;;;;7.45;6.38;;;6.70;99.90;;;;;;5031615;28;20300;-41
2021/03/05 10:44:21;;;;;;;6.05;4.65;;;6.80;99.90;;;;;;5031792;28;20236;-41
2021/03/05 10:46:48;;;;;;;6.15;4.80;;;6.70;99.90;;;;;;5031584;28;20671;-41
2021/03/05 10:49:16;;;;;;;7.07;5.65;;;6.70;99.90;;;;;;5031765;28;20609;-41
2021/03/05 10:51:43;;;;;;;4.80;4.28;;;6.70;99.90;;;;;;5031462;28;20721;-41
2021/03/05 10:54:10;;;;;;;6.97;5.03;;;6.80;99.90;;;;;;5031599;28;20399;-40
2021/03/05 10:56:38;;;;;;;5.28;4.65;;;7.00;99.90;;;;;;5031348;28;20679;-40
2021/03/05 10:59:06;;;;;;;5.40;4.55;;;7.10;99.90;;;;;;5031552;28;20296;-42
2021/03/05 11:01:33;;;;;;;5.72;4.22;;;7.20;99.90;;;;;;5031398;28;20246;-41
2021/03/05 11:04:00;;;;;;;7.50;4.88;;;7.20;99.90;;;;;;5031478;28;20209;-40
2021/03/05 11:06:27;;;;;;;6.38;5.30;;;7.30;99.90;;;;;;5031400;28;20205;-41
2021/03/05 11:08:53;;;;;;;6.57;4.50;;;7.40;99.90;;;;;;5031414;28;20323;-41
2021/03/05 11:11:22;;;;;;;7.45;4.95;;;7.40;99.90;;;;;;5031363;28;20240;-40
2021/03/05 11:13:53;;;;;;;10.05;6.50;;;7.50;99.90;;;;;;5031256;28;20248;-41
2021/03/05 11:16:20;;;;;;;5.28;4.78;;;7.60;99.90;;;;;;5031315;28;20205;-41
2021/03/05 11:18:47;;;;;;;5.07;4.57;;;7.70;99.90;;;;;;5031177;28;20232;-42
2021/03/05 11:21:15;;;;;;;6.68;5.25;;;7.80;99.90;;;;;;5031263;28;20295;-41
2021/03/05 11:23:42;;;;;;;6.80;5.30;;;7.90;99.90;;;;;;5031251;28;20234;-41
2021/03/05 11:26:09;;;;;;;4.68;4.28;;;8.00;99.90;;;;;;5031052;28;20680;-41
2021/03/05 11:28:36;;;;;;;5.60;4.78;;;8.10;99.90;;;;;;5031985;28;20292;-41
2021/03/05 11:31:04;;;;;;;5.90;5.05;;;8.20;99.70;;;;;;5031002;28;20212;-41
2021/03/05 11:33:31;;;;;;;4.95;4.43;;;8.30;99.40;;;;;;5031127;28;20216;-41
2021/03/05 11:35:59;;;;;;;5.95;4.60;;;8.30;99.20;;;;;;5031002;28;20376;-41
2021/03/05 11:38:29;;;;;;;6.38;5.13;;;8.30;99.20;;;;;;5030947;28;20302;-41
2021/03/05 11:40:56;;;;;;;6.32;4.88;;;8.30;98.90;;;;;;5031038;28;20213;-41
2021/03/05 11:43:23;;;;;;;6.55;5.70;;;8.30;98.80;;;;;;5031096;28;20644;-42
2021/03/05 11:45:50;;;;;;;5.13;4.63;;;8.30;98.60;;;;;;5031059;28;20676;-42
2021/03/05 11:48:18;;;;;;;5.68;4.93;;;8.20;98.70;;;;;;5030951;28;20236;-43
2021/03/05 11:50:46;;;;;;;6.80;5.25;;;8.20;99.00;;;;;;5034311;28;20209;-41
2021/03/05 11:53:13;;;;;;;4.88;3.88;;;8.20;98.90;;;;;;5034553;28;20586;-42
2021/03/05 11:55:40;;;;;;;6.68;5.22;;;8.30;98.70;;;;;;5034521;28;20212;-41
2021/03/05 11:58:07;;;;;;;5.32;4.55;;;8.40;98.50;;;;;;5034584;28;20272;-41
2021/03/05 12:00:34;;;;;;;5.32;4.78;;;8.50;98.20;;;;;;5034713;28;20220;-41
2021/03/05 12:03:01;;;;;;;6.10;5.15;;;8.50;98.10;;;;;;5034081;28;20265;-40
2021/03/05 12:05:29;;;;;;;5.60;4.95;;;8.50;97.80;;;;;;5034444;28;20247;-41
2021/03/05 12:07:56;;;;;;;6.15;5.43;;;8.60;97.70;;;;;;5034876;28;20236;-42
2021/03/05 12:10:23;;;;;;;6.20;5.43;;;8.60;97.70;;;;;;5034568;28;20648;-42
2021/03/05 12:12:51;;;;;;;6.75;5.60;;;8.60;97.60;;;;;;5034791;28;20219;-43
2021/03/05 12:15:19;;;;;;;8.32;6.65;;;8.60;97.40;;;;;;5034734;28;20244;-42
2021/03/05 12:17:49;;;;;;;8.15;5.35;;;8.50;97.70;;;;;;5034348;28;20319;-41
2021/03/05 12:20:17;;;;;;;8.30;5.55;;;8.40;97.80;;;;;;5036314;28;20243;-41
2021/03/05 12:22:46;;;;;;;7.07;5.55;;;8.30;97.90;;;;;;5034351;28;20205;-41
2021/03/05 12:25:14;;;;;;;7.55;5.65;;;8.30;97.70;;;;;;5034385;28;20213;-42
2021/03/05 12:27:41;;;;;;;5.95;5.32;;;8.20;97.80;;;;;;5034188;28;20282;-41
2021/03/05 12:30:09;;;;;;;8.73;7.25;;;8.20;97.80;;;;;;5034331;28;20495;-42
2021/03/05 12:32:36;;;;;;;6.47;5.50;;;8.10;97.70;;;;;;5034072;28;20208;-41
2021/03/05 12:35:05;;;;;;;7.15;5.28;;;7.90;97.90;;;;;;5034001;28;20209;-41
2021/03/05 12:37:32;;;;;;;6.05;5.22;;;7.90;97.80;;;;;;5033947;28;20260;-41
2021/03/05 12:40:00;;;;;;;6.95;5.20;;;7.80;97.90;;;;;;5034250;28;20303;-42
2021/03/05 12:42:26;;;;;;;8.45;5.82;;;7.90;97.70;;;;;;5034080;28;20244;-41
2021/03/05 12:45:03;;;;;;;8.68;5.80;;;8.00;97.40;;;;;;5033731;28;20742;-41
2021/03/05 12:47:30;;;;;;;5.97;4.55;;;8.10;97.20;;;;;;5033391;28;20689;-40
2021/03/05 12:49:57;;;;;;;7.65;5.55;;;8.20;97.20;;;;;;5033534;28;20270;-42
2021/03/05 12:52:24;;;;;;;6.68;5.53;;;8.30;97.10;;;;;;5033635;28;20205;-41
2021/03/05 12:54:53;;;;;;;7.40;6.10;;;8.30;97.00;;;;;;5033566;28;20213;-40
2021/03/05 12:57:21;;;;;;;6.47;5.22;;;8.40;96.70;;;;;;5033302;28;20663;-41
2021/03/05 12:59:48;;;;;;;6.57;5.63;;;8.30;96.50;;;;;;5033485;28;20374;-43
2021/03/05 13:02:15;;;;;;;8.40;6.22;;;8.30;96.50;;;;;;5032421;28;20236;-45
2021/03/05 13:04:42;;;;;;;6.82;5.60;;;8.20;96.80;;;;;;5033560;28;20627;-41